Time;durP1;ratioP1;P1;durP2;ratioP2;P2;SDS_P1;SDS_P2;PMS_P1;PMS_P2;Temp;Humidity;BMP_temperature;BMP_pressure;BME280_temperature;BME280_humidity;BME280_pressure;Samples;Min_cycle;Max_cycle;Signal;HPM_P1;HPM_P2
2024/02/25 00:01:17;;;;;;;11.60;7.00;;;;;;;11.33;52.99;100994.36;105135;1257;59721;-59
2024/02/25 00:03:45;;;;;;;7.90;3.50;;;;;;;11.33;53.03;100992.46;105175;1257;59557;-64
2024/02/25 00:06:13;;;;;;;12.50;7.40;;;;;;;11.33;52.96;100988.77;105170;1256;62940;-59
2024/02/25 00:08:41;;;;;;;14.00;7.40;;;;;;;11.32;52.84;100986.69;105301;1262;60320;-61
2024/02/25 00:11:10;;;;;;;15.40;7.90;;;;;;;11.30;52.83;100982.31;105358;1257;62553;-60
2024/02/25 00:13:38;;;;;;;11.30;6.90;;;;;;;11.24;52.98;100987.48;105149;1257;59592;-55
2024/02/25 00:16:06;;;;;;;12.70;6.50;;;;;;;11.21;52.92;100993.02;105192;1262;59619;-56
2024/02/25 00:18:34;;;;;;;9.20;3.20;;;;;;;11.22;52.98;100987.48;105095;1257;62910;-60
2024/02/25 00:21:02;;;;;;;11.10;6.50;;;;;;;11.26;52.83;100989.80;104995;1256;60265;-62
2024/02/25 00:23:29;;;;;;;12.80;7.50;;;;;;;11.29;52.72;100995.71;106342;1260;62544;-60
2024/02/25 00:25:57;;;;;;;14.10;7.30;;;;;;;11.30;52.60;100991.44;105177;1260;59698;-60
2024/02/25 00:28:25;;;;;;;11.70;7.30;;;;;;;11.29;52.59;100990.44;105743;1261;59651;-62
2024/02/25 00:30:53;;;;;;;17.60;8.30;;;;;;;11.28;52.50;100992.83;105233;1257;65212;-61
2024/02/25 00:33:21;;;;;;;8.50;2.80;;;;;;;11.25;52.44;100994.59;105252;1257;61745;-63
2024/02/25 00:35:49;;;;;;;12.20;7.40;;;;;;;11.22;52.31;100991.70;105133;1261;64334;-59
2024/02/25 00:38:16;;;;;;;12.40;8.00;;;;;;;11.16;52.26;100990.69;105163;1257;60107;-57
2024/02/25 00:40:44;;;;;;;14.10;7.60;;;;;;;11.10;52.16;100989.91;105304;1257;59523;-61
2024/02/25 00:43:27;;;;;;;12.20;3.80;;;;;;;11.04;52.21;100991.77;105104;1257;62920;-62
2024/02/25 00:45:55;;;;;;;13.90;8.40;;;;;;;10.96;52.24;100996.15;105118;1260;60478;-60
2024/02/25 00:48:23;;;;;;;13.40;8.20;;;;;;;10.91;52.15;101000.06;104955;1259;62515;-58
2024/02/25 00:50:51;;;;;;;15.20;8.30;;;;;;;10.88;52.17;100998.35;105106;1257;59737;-61
2024/02/25 00:53:19;;;;;;;7.70;3.20;;;;;;;10.85;52.23;101000.30;105867;1257;59533;-58
2024/02/25 00:55:47;;;;;;;13.90;7.60;;;;;;;10.81;52.11;100997.22;105183;1259;64227;-57
2024/02/25 00:58:14;;;;;;;11.60;7.20;;;;;;;10.76;51.94;100997.59;104958;1254;62267;-59
2024/02/25 01:00:42;;;;;;;6.10;2.50;;;;;;;10.76;51.90;100999.34;105145;1259;62534;-58
2024/02/25 01:03:10;;;;;;;12.20;7.80;;;;;;;10.81;51.80;101000.39;105085;1257;59682;-57
2024/02/25 01:05:38;;;;;;;7.40;3.00;;;;;;;10.85;51.77;100996.99;104935;1257;59778;-59
2024/02/25 01:08:06;;;;;;;13.10;7.00;;;;;;;10.85;51.59;100996.25;106250;1257;62894;-56
2024/02/25 01:10:34;;;;;;;12.20;7.70;;;;;;;10.84;51.50;101002.27;106370;1259;60282;-58
2024/02/25 01:13:01;;;;;;;11.90;7.70;;;;;;;10.83;51.31;101000.98;105224;1257;62520;-56
2024/02/25 01:15:29;;;;;;;8.10;3.30;;;;;;;10.81;51.30;101001.45;105126;1261;59765;-60
2024/02/25 01:17:57;;;;;;;13.70;8.00;;;;;;;10.80;51.26;101002.75;105172;1257;59619;-59
2024/02/25 01:20:25;;;;;;;12.80;7.70;;;;;;;10.78;51.27;101005.67;105700;1255;64342;-58
2024/02/25 01:22:53;;;;;;;8.10;2.90;;;;;;;10.77;51.32;101010.52;105140;1260;61526;-56
2024/02/25 01:25:20;;;;;;;14.30;8.10;;;;;;;10.74;51.27;101014.59;105180;1257;63826;-61
2024/02/25 01:27:48;;;;;;;12.50;7.90;;;;;;;10.71;51.26;101016.20;105110;1259;59704;-59
2024/02/25 01:30:16;;;;;;;10.40;3.30;;;;;;;10.70;51.38;101019.98;105208;1260;59564;-59
2024/02/25 01:32:44;;;;;;;12.90;7.80;;;;;;;10.69;51.46;101019.00;105159;1257;64549;-59
2024/02/25 01:35:12;;;;;;;9.30;3.30;;;;;;;10.67;51.55;101018.61;105375;1260;60484;-59
2024/02/25 01:37:40;;;;;;;13.10;7.30;;;;;;;10.65;51.62;101019.96;105377;1259;62520;-57
2024/02/25 01:40:09;;;;;;;11.20;6.50;;;;;;;10.64;51.70;101015.83;105194;1260;59535;-56
2024/02/25 01:42:37;;;;;;;8.40;3.20;;;;;;;10.67;51.84;101015.95;105431;1257;59713;-56
2024/02/25 01:45:06;;;;;;;13.30;7.30;;;;;;;10.74;51.66;101013.38;105579;1260;62897;-61
2024/02/25 01:47:34;;;;;;;8.20;3.30;;;;;;;10.81;51.62;101013.58;105612;1259;60261;-60
2024/02/25 01:50:04;;;;;;;13.00;8.30;;;;;;;10.85;51.55;101017.71;105068;1256;63830;-61
2024/02/25 01:52:32;;;;;;;14.90;7.90;;;;;;;10.86;51.52;101025.33;105621;1260;59775;-59
2024/02/25 01:55:00;;;;;;;13.40;8.70;;;;;;;10.87;51.41;101028.23;105101;1257;59711;-59
2024/02/25 01:57:28;;;;;;;8.20;2.80;;;;;;;10.87;51.45;101032.95;105231;1262;64605;-58
2024/02/25 01:59:55;;;;;;;15.90;8.20;;;;;;;10.87;51.39;101029.79;105079;1255;60268;-60
2024/02/25 02:02:23;;;;;;;15.30;8.00;;;;;;;10.84;51.32;101027.02;104858;1263;63859;-64
2024/02/25 02:04:51;;;;;;;7.10;3.20;;;;;;;10.79;51.35;101029.31;105081;1257;59762;-63
2024/02/25 02:07:19;;;;;;;13.10;7.50;;;;;;;10.76;51.38;101023.90;106037;1261;59682;-67
2024/02/25 02:09:47;;;;;;;9.60;4.60;;;;;;;10.73;51.37;101026.22;105118;1257;62928;-63
2024/02/25 02:12:15;;;;;;;14.00;8.40;;;;;;;10.71;51.45;101025.66;105915;1257;61512;-61
2024/02/25 02:14:43;;;;;;;16.50;8.10;;;;;;;10.69;51.53;101026.52;105058;1260;62524;-65
2024/02/25 02:17:11;;;;;;;8.30;3.20;;;;;;;10.68;51.59;101027.98;105273;1263;59772;-64
2024/02/25 02:19:45;;;;;;;15.80;8.90;;;;;;;10.66;51.70;101024.98;105093;1262;59628;-63
2024/02/25 02:22:13;;;;;;;15.00;8.20;;;;;;;10.62;51.74;101023.52;105369;1257;64281;-60
2024/02/25 02:24:41;;;;;;;14.30;8.00;;;;;;;10.64;51.73;101026.67;105306;1257;61774;-64
2024/02/25 02:27:09;;;;;;;13.40;8.40;;;;;;;10.69;51.61;101027.73;105447;1260;62549;-63
2024/02/25 02:29:36;;;;;;;15.30;7.90;;;;;;;10.73;51.75;101033.77;105065;1259;60556;-65
2024/02/25 02:32:04;;;;;;;8.70;3.00;;;;;;;10.75;51.81;101030.33;107193;1257;60367;-68
2024/02/25 02:34:32;;;;;;;12.90;7.90;;;;;;;10.75;51.76;101028.54;105585;1262;64937;-62
2024/02/25 02:37:00;;;;;;;15.40;8.60;;;;;;;10.75;51.62;101022.76;105204;1260;61695;-63
2024/02/25 02:39:28;;;;;;;7.90;2.90;;;;;;;10.75;51.71;101013.79;105126;1261;62515;-62
2024/02/25 02:41:56;;;;;;;12.60;8.70;;;;;;;10.74;51.65;101009.33;105056;1262;60488;-58
2024/02/25 02:44:24;;;;;;;12.30;8.30;;;;;;;10.72;51.67;101009.48;105789;1260;60671;-65
2024/02/25 02:46:52;;;;;;;8.90;3.30;;;;;;;10.68;51.75;101009.41;105170;1260;65014;-60
2024/02/25 02:49:19;;;;;;;14.70;8.60;;;;;;;10.63;51.89;101010.45;105184;1260;60382;-59
2024/02/25 02:51:47;;;;;;;14.00;8.00;;;;;;;10.58;51.97;101011.96;105230;1257;62549;-61
2024/02/25 02:54:15;;;;;;;9.90;3.30;;;;;;;10.57;52.10;101017.89;105077;1262;60556;-60
2024/02/25 02:56:43;;;;;;;15.60;9.40;;;;;;;10.55;52.14;101018.02;105075;1262;60459;-61
2024/02/25 02:59:11;;;;;;;10.30;3.60;;;;;;;10.52;52.21;101021.01;105163;1258;63915;-62
2024/02/25 03:01:38;;;;;;;14.90;8.50;;;;;;;10.56;52.15;101017.42;105174;1257;63024;-69
2024/02/25 03:04:06;;;;;;;7.40;3.30;;;;;;;10.60;52.09;101014.49;105321;1256;62540;-62
2024/02/25 03:06:34;;;;;;;13.80;8.10;;;;;;;10.65;52.01;101013.45;105476;1260;60832;-61
2024/02/25 03:09:02;;;;;;;13.10;8.30;;;;;;;10.70;52.08;101011.53;105566;1257;60563;-63
2024/02/25 03:11:30;;;;;;;12.70;8.30;;;;;;;10.74;52.05;101010.38;105055;1262;63733;-61
2024/02/25 03:13:58;;;;;;;8.70;4.00;;;;;;;10.75;51.97;101013.26;105041;1260;60545;-61
2024/02/25 03:16:26;;;;;;;15.20;9.20;;;;;;;10.74;51.86;101011.58;105202;1261;62522;-62
2024/02/25 03:18:55;;;;;;;9.70;3.90;;;;;;;10.72;51.74;101004.87;105120;1258;60562;-61
2024/02/25 03:21:23;;;;;;;16.50;9.20;;;;;;;10.72;51.94;101001.77;106482;1260;60610;-63
2024/02/25 03:23:51;;;;;;;14.80;9.00;;;;;;;10.69;51.84;101004.60;105189;1261;65086;-62
2024/02/25 03:26:19;;;;;;;9.10;3.70;;;;;;;10.63;51.87;101003.41;106679;1259;61979;-65
2024/02/25 03:28:47;;;;;;;17.80;9.20;;;;;;;10.59;51.82;101006.33;105176;1259;62545;-60
2024/02/25 03:31:17;;;;;;;15.20;9.10;;;;;;;10.56;52.01;101006.23;105180;1260;60581;-64
2024/02/25 03:33:45;;;;;;;10.90;4.20;;;;;;;10.53;52.10;101007.77;105051;1269;60525;-59
2024/02/25 03:36:13;;;;;;;15.50;9.50;;;;;;;10.51;52.19;101004.77;106167;1260;64915;-60
2024/02/25 03:38:42;;;;;;;13.30;4.00;;;;;;;10.48;52.16;101003.79;105175;1260;60440;-61
2024/02/25 03:41:09;;;;;;;16.10;10.00;;;;;;;10.44;52.19;101002.63;105354;1261;62523;-62
2024/02/25 03:43:37;;;;;;;15.70;8.80;;;;;;;10.41;52.20;101006.84;105456;1257;60667;-60
2024/02/25 03:46:06;;;;;;;9.60;3.00;;;;;;;10.46;52.17;101007.27;105322;1257;60603;-64
2024/02/25 03:48:33;;;;;;;14.60;9.30;;;;;;;10.52;52.17;101014.18;105451;1260;65485;-58
2024/02/25 03:51:02;;;;;;;9.70;3.70;;;;;;;10.57;52.10;101014.19;104989;1264;60542;-60
2024/02/25 03:53:30;;;;;;;13.60;9.30;;;;;;;10.59;51.93;101010.52;105637;1258;62606;-61
2024/02/25 03:55:58;;;;;;;16.30;8.90;;;;;;;10.61;52.02;101010.23;105187;1260;60575;-60
2024/02/25 03:58:27;;;;;;;13.50;8.90;;;;;;;10.63;51.99;101013.44;105143;1260;60484;-60
2024/02/25 04:00:55;;;;;;;6.50;3.40;;;;;;;10.62;51.85;101012.98;105165;1259;65493;-60
2024/02/25 04:03:23;;;;;;;16.00;9.40;;;;;;;10.57;51.76;101012.77;105880;1257;60646;-60
2024/02/25 04:05:51;;;;;;;12.90;8.90;;;;;;;10.51;51.82;101013.21;105159;1260;62673;-60
2024/02/25 04:08:19;;;;;;;11.80;3.40;;;;;;;10.46;51.77;101018.61;105351;1258;60513;-59
2024/02/25 04:10:47;;;;;;;13.80;9.10;;;;;;;10.43;51.81;101021.69;105162;1260;60649;-59
2024/02/25 04:13:15;;;;;;;10.10;4.90;;;;;;;10.38;51.93;101023.73;105074;1259;64964;-58
2024/02/25 04:15:44;;;;;;;13.10;8.80;;;;;;;10.36;51.98;101025.98;105196;1263;71117;-62
2024/02/25 04:18:12;;;;;;;13.30;9.00;;;;;;;10.36;52.10;101023.33;108974;1257;63829;-61
2024/02/25 04:20:40;;;;;;;12.60;3.60;;;;;;;10.35;51.97;101020.27;105395;1259;60487;-61
2024/02/25 04:23:07;;;;;;;15.10;8.60;;;;;;;10.30;51.99;101017.24;104973;1271;60508;-60
2024/02/25 04:25:35;;;;;;;14.40;8.60;;;;;;;10.27;51.90;101011.90;105163;1255;63738;-59
2024/02/25 04:28:03;;;;;;;6.90;3.60;;;;;;;10.22;51.97;101016.92;105047;1260;61677;-62
2024/02/25 04:30:32;;;;;;;12.10;7.30;;;;;;;10.21;51.99;101021.92;105593;1260;62525;-61
2024/02/25 04:32:59;;;;;;;7.30;2.60;;;;;;;10.25;51.91;101023.20;105803;1263;61651;-60
2024/02/25 04:35:27;;;;;;;13.90;6.60;;;;;;;10.30;51.96;101021.80;105205;1257;60350;-61
2024/02/25 04:37:55;;;;;;;11.70;7.00;;;;;;;10.40;51.94;101024.14;105208;1260;65533;-59
2024/02/25 04:40:24;;;;;;;13.50;6.90;;;;;;;10.48;51.85;101023.96;105177;1261;61536;-59
2024/02/25 04:42:51;;;;;;;13.20;7.00;;;;;;;10.53;51.61;101020.61;105188;1262;62527;-63
2024/02/25 04:45:19;;;;;;;7.80;3.00;;;;;;;10.57;51.39;101026.64;105079;1260;60681;-63
2024/02/25 04:47:47;;;;;;;12.00;7.00;;;;;;;10.58;51.27;101034.14;105087;1260;60554;-63
2024/02/25 04:50:15;;;;;;;7.10;2.70;;;;;;;10.56;51.24;101041.09;105082;1257;63786;-62
2024/02/25 04:52:42;;;;;;;14.90;7.40;;;;;;;10.53;51.02;101043.23;105193;1259;63814;-60
2024/02/25 04:55:10;;;;;;;12.20;7.70;;;;;;;10.49;51.07;101040.03;105086;1258;62602;-62
2024/02/25 04:57:38;;;;;;;7.30;2.20;;;;;;;10.44;51.06;101042.52;105125;1258;60508;-61
2024/02/25 05:00:06;;;;;;;13.00;7.30;;;;;;;10.39;51.08;101046.51;105062;1260;60636;-61
2024/02/25 05:02:34;;;;;;;9.60;3.00;;;;;;;10.35;51.13;101048.48;106398;1260;64967;-59
2024/02/25 05:05:04;;;;;;;11.80;7.30;;;;;;;10.32;50.97;101045.35;104998;1261;61602;-61
2024/02/25 05:07:32;;;;;;;12.10;6.30;;;;;;;10.29;50.88;101044.52;105629;1258;65678;-62
2024/02/25 05:10:00;;;;;;;7.40;2.90;;;;;;;10.24;50.94;101039.22;105640;1259;60561;-60
2024/02/25 05:12:28;;;;;;;12.00;7.20;;;;;;;10.18;50.97;101038.75;105165;1260;60558;-58
2024/02/25 05:14:56;;;;;;;7.30;2.70;;;;;;;10.13;51.09;101035.75;105058;1261;73815;-65
2024/02/25 05:17:25;;;;;;;9.90;5.80;;;;;;;10.09;51.12;101035.52;105829;1258;61498;-61
2024/02/25 05:19:53;;;;;;;5.80;2.00;;;;;;;10.06;51.22;101037.33;105083;1261;64126;-67
2024/02/25 05:22:21;;;;;;;8.50;2.50;;;;;;;10.02;51.20;101038.29;105129;1260;60560;-63
2024/02/25 05:24:49;;;;;;;11.00;5.70;;;;;;;9.99;51.21;101042.86;105218;1257;60313;-59
2024/02/25 05:27:18;;;;;;;12.40;3.10;;;;;;;9.98;51.14;101047.13;105266;1260;63887;-64
2024/02/25 05:29:47;;;;;;;9.20;5.80;;;;;;;9.95;51.14;101058.17;105317;1260;60524;-60
2024/02/25 05:32:15;;;;;;;6.50;2.50;;;;;;;9.94;51.01;101061.39;105196;1260;63992;-60
2024/02/25 05:34:43;;;;;;;8.30;4.80;;;;;;;9.99;50.97;101065.63;105077;1263;60512;-60
2024/02/25 05:37:15;;;;;;;6.70;2.10;;;;;;;10.07;50.75;101070.04;105085;1255;60566;-58
2024/02/25 05:39:43;;;;;;;12.20;5.40;;;;;;;10.13;50.59;101069.10;105333;1257;63733;-61
2024/02/25 05:42:10;;;;;;;4.50;2.10;;;;;;;10.22;50.52;101070.95;105243;1257;60827;-66
2024/02/25 05:44:38;;;;;;;9.20;4.90;;;;;;;10.28;50.27;101080.35;105281;1260;63855;-62
2024/02/25 05:47:06;;;;;;;8.40;4.60;;;;;;;10.30;50.11;101085.64;105188;1258;62053;-62
2024/02/25 05:49:33;;;;;;;6.00;1.60;;;;;;;10.32;50.03;101082.40;105186;1259;60424;-66
2024/02/25 05:52:01;;;;;;;8.70;5.30;;;;;;;10.31;49.93;101080.52;105536;1260;72695;-62
2024/02/25 05:54:29;;;;;;;8.40;2.30;;;;;;;10.28;49.83;101082.29;105554;1264;60495;-61
2024/02/25 05:56:57;;;;;;;14.90;5.60;;;;;;;10.23;49.89;101089.27;105919;1259;63708;-60
2024/02/25 05:59:25;;;;;;;6.40;2.40;;;;;;;10.20;49.90;101091.21;105169;1260;60571;-58
2024/02/25 06:01:53;;;;;;;9.30;5.00;;;;;;;10.18;49.99;101087.15;105178;1261;60591;-59
2024/02/25 06:04:21;;;;;;;8.90;3.20;;;;;;;10.14;49.88;101088.13;105111;1257;64065;-59
2024/02/25 06:06:52;;;;;;;9.70;5.40;;;;;;;10.08;50.12;101091.66;105193;1260;60527;-63
2024/02/25 06:09:21;;;;;;;5.40;2.00;;;;;;;10.03;50.18;101097.98;105149;1257;62618;-61
2024/02/25 06:11:48;;;;;;;11.30;5.70;;;;;;;9.99;50.29;101095.11;105942;1257;60636;-59
2024/02/25 06:14:16;;;;;;;10.70;5.50;;;;;;;9.97;50.27;101097.11;105295;1257;60626;-59
2024/02/25 06:16:44;;;;;;;7.60;1.80;;;;;;;9.98;50.07;101095.32;105122;1255;63698;-56
2024/02/25 06:19:12;;;;;;;9.40;4.40;;;;;;;9.97;50.04;101096.27;105105;1257;61536;-58
2024/02/25 06:21:47;;;;;;;9.10;1.80;;;;;;;9.96;50.04;101097.92;105100;1261;63820;-65
2024/02/25 06:24:15;;;;;;;6.20;1.80;;;;;;;9.95;49.97;101094.83;105280;1262;60594;-61
2024/02/25 06:26:44;;;;;;;8.40;4.70;;;;;;;9.94;49.90;101097.90;105263;1260;60652;-59
2024/02/25 06:29:12;;;;;;;10.00;2.00;;;;;;;9.93;49.78;101093.21;105361;1260;63720;-58
2024/02/25 06:31:40;;;;;;;12.60;4.90;;;;;;;9.90;49.77;101092.34;105160;1261;61547;-60
2024/02/25 06:34:08;;;;;;;6.20;3.30;;;;;;;9.88;49.68;101091.41;105191;1261;62994;-60
2024/02/25 06:36:36;;;;;;;12.70;5.60;;;;;;;9.89;49.67;101092.27;105310;1257;59333;-63
2024/02/25 06:39:04;;;;;;;7.00;2.30;;;;;;;9.89;49.59;101095.25;105150;1254;60766;-58
2024/02/25 06:41:32;;;;;;;11.50;5.00;;;;;;;9.88;49.53;101097.42;105629;1260;65072;-59
2024/02/25 06:44:00;;;;;;;12.60;1.90;;;;;;;9.87;49.56;101089.92;105082;1260;61503;-61
2024/02/25 06:46:27;;;;;;;8.40;4.60;;;;;;;9.87;49.52;101090.96;105220;1258;63254;-60
2024/02/25 06:48:55;;;;;;;6.70;2.00;;;;;;;9.88;49.50;101091.24;108867;1255;58481;-58
2024/02/25 06:51:26;;;;;;;9.80;5.30;;;;;;;9.91;49.48;101091.60;105079;1257;60481;-61
2024/02/25 06:54:00;;;;;;;6.10;1.70;;;;;;;9.94;49.36;101085.58;105982;1262;76266;-62
2024/02/25 06:56:34;;;;;;;10.60;4.60;;;;;;;9.95;49.22;101082.02;105139;1258;63968;-62
2024/02/25 06:59:08;;;;;;;6.90;2.40;;;;;;;9.95;49.21;101084.64;105303;1260;63926;-62
2024/02/25 07:01:41;;;;;;;6.30;2.10;;;;;;;9.97;49.10;101081.67;105296;1256;60616;-63
2024/02/25 07:04:10;;;;;;;8.10;4.00;;;;;;;9.98;48.92;101074.64;105272;1257;60338;-60
2024/02/25 07:06:39;;;;;;;8.50;4.30;;;;;;;9.98;48.93;101071.13;105367;1260;65016;-62
2024/02/25 07:09:15;;;;;;;4.60;1.60;;;;;;;9.98;48.86;101073.42;105553;1257;63624;-63
2024/02/25 07:11:45;;;;;;;9.60;4.40;;;;;;;9.97;48.74;101077.48;105112;1262;75320;-59
2024/02/25 07:14:15;;;;;;;4.90;1.80;;;;;;;9.97;48.61;101078.05;105247;1257;62692;-62
2024/02/25 07:16:50;;;;;;;9.20;4.20;;;;;;;9.96;48.65;101085.28;105889;1255;60585;-60
2024/02/25 07:19:18;;;;;;;6.40;2.40;;;;;;;9.98;48.70;101090.61;105324;1260;65352;-60
2024/02/25 07:21:50;;;;;;;7.40;3.80;;;;;;;10.00;48.69;101086.26;105139;1260;61820;-59
2024/02/25 07:24:18;;;;;;;5.00;1.70;;;;;;;10.00;48.59;101085.70;104971;1259;64331;-59
2024/02/25 07:26:46;;;;;;;9.60;4.60;;;;;;;10.00;48.43;101089.94;105224;1257;60564;-59
2024/02/25 07:29:14;;;;;;;7.20;1.90;;;;;;;9.98;48.44;101092.86;105387;1255;60871;-59
2024/02/25 07:31:41;;;;;;;8.70;4.00;;;;;;;9.95;48.46;101094.64;105153;1259;64890;-61
2024/02/25 07:34:09;;;;;;;7.50;1.40;;;;;;;9.93;48.49;101100.05;105066;1260;61633;-58
2024/02/25 07:36:37;;;;;;;9.70;4.90;;;;;;;9.92;48.52;101106.05;106229;1257;62526;-59
2024/02/25 07:39:05;;;;;;;5.70;1.90;;;;;;;9.93;48.64;101109.33;105136;1256;60511;-59
2024/02/25 07:41:33;;;;;;;9.30;4.30;;;;;;;9.98;48.68;101107.73;105109;1255;60540;-59
2024/02/25 07:44:01;;;;;;;6.20;2.30;;;;;;;10.02;48.67;101105.38;105738;1260;65032;-60
2024/02/25 07:46:29;;;;;;;11.40;4.20;;;;;;;10.04;48.61;101103.84;105223;1259;60542;-61
2024/02/25 07:48:58;;;;;;;6.60;1.60;;;;;;;10.06;48.44;101104.98;105102;1254;62549;-59
2024/02/25 07:51:35;;;;;;;10.80;4.30;;;;;;;10.06;48.38;101101.46;105493;1256;60662;-59
2024/02/25 07:54:03;;;;;;;7.00;2.70;;;;;;;10.06;48.20;101100.40;105560;1254;61802;-59
2024/02/25 07:56:31;;;;;;;14.20;5.40;;;;;;;10.05;48.08;101100.83;105498;1256;65410;-59
2024/02/25 07:58:59;;;;;;;13.30;2.70;;;;;;;10.05;48.06;101100.46;105510;1256;61577;-61
2024/02/25 08:01:27;;;;;;;12.90;5.20;;;;;;;10.07;48.07;101098.77;104989;1260;62683;-59
2024/02/25 08:03:54;;;;;;;6.40;1.70;;;;;;;10.09;48.11;101097.23;105089;1260;60041;-60
2024/02/25 08:06:28;;;;;;;10.70;4.80;;;;;;;10.11;48.03;101098.45;104908;1260;60473;-61
2024/02/25 08:08:56;;;;;;;4.90;1.60;;;;;;;10.16;48.01;101101.98;106578;1254;65010;-61
2024/02/25 08:11:24;;;;;;;12.10;5.00;;;;;;;10.21;47.93;101100.25;104795;1254;72891;-60
2024/02/25 08:13:53;;;;;;;7.60;2.30;;;;;;;10.28;47.97;101100.52;108927;1259;64445;-59
2024/02/25 08:16:21;;;;;;;8.90;4.70;;;;;;;10.35;47.77;101100.58;108346;1254;59346;-62
2024/02/25 08:18:52;;;;;;;6.20;2.30;;;;;;;10.43;47.87;101100.92;105008;1257;60486;-62
2024/02/25 08:21:20;;;;;;;9.40;4.70;;;;;;;10.51;47.73;101101.80;104918;1257;64998;-65
2024/02/25 08:23:48;;;;;;;12.70;5.10;;;;;;;10.55;47.27;101105.02;104997;1261;60481;-60
2024/02/25 08:26:17;;;;;;;5.00;1.80;;;;;;;10.56;47.18;101106.69;105140;1260;64414;-60
2024/02/25 08:28:44;;;;;;;11.20;4.90;;;;;;;10.57;47.22;101103.86;105101;1257;60536;-60
2024/02/25 08:31:12;;;;;;;11.20;5.10;;;;;;;10.57;47.40;101102.05;105041;1256;60443;-63
2024/02/25 08:33:40;;;;;;;11.30;4.20;;;;;;;10.61;47.34;101101.63;105131;1254;63722;-59
2024/02/25 08:36:08;;;;;;;10.40;4.80;;;;;;;10.65;47.10;101104.20;106255;1257;60415;-58
2024/02/25 08:38:40;;;;;;;10.80;5.30;;;;;;;10.70;47.20;101101.72;105364;1254;62501;-61
2024/02/25 08:41:08;;;;;;;7.30;1.60;;;;;;;10.78;47.19;101100.15;105494;1259;60393;-64
2024/02/25 08:43:36;;;;;;;12.20;5.10;;;;;;;10.84;46.82;101101.77;105497;1254;60515;-61
2024/02/25 08:46:04;;;;;;;10.20;5.10;;;;;;;10.86;46.54;101103.77;105137;1254;65021;-59
2024/02/25 08:48:32;;;;;;;7.70;2.50;;;;;;;10.89;46.68;101103.21;105130;1255;69943;-60
2024/02/25 08:50:59;;;;;;;9.00;5.00;;;;;;;10.98;46.89;101097.18;106323;1259;64193;-59
2024/02/25 08:53:29;;;;;;;4.60;1.90;;;;;;;11.08;46.49;101092.59;105618;1259;60594;-59
2024/02/25 08:55:57;;;;;;;12.30;5.20;;;;;;;11.14;46.05;101091.09;105074;1260;60470;-59
2024/02/25 08:58:24;;;;;;;8.40;4.60;;;;;;;11.19;46.17;101094.27;104936;1255;63714;-59
2024/02/25 09:00:52;;;;;;;10.40;4.70;;;;;;;11.24;46.44;101093.58;105017;1260;62953;-58
2024/02/25 09:03:20;;;;;;;10.80;5.20;;;;;;;11.30;46.40;101092.09;105791;1254;62860;-57
2024/02/25 09:06:00;;;;;;;6.50;2.00;;;;;;;11.32;46.20;101089.84;105172;1254;60443;-59
2024/02/25 09:08:28;;;;;;;11.50;4.90;;;;;;;11.32;46.27;101085.73;105098;1257;60648;-58
2024/02/25 09:10:55;;;;;;;10.60;4.80;;;;;;;11.33;46.10;101080.46;105150;1256;63709;-58
2024/02/25 09:13:23;;;;;;;6.40;2.80;;;;;;;11.32;45.91;101087.55;105167;1254;60421;-59
2024/02/25 09:15:51;;;;;;;10.00;4.80;;;;;;;11.30;45.89;101096.63;105150;1259;64016;-58
2024/02/25 09:18:18;;;;;;;9.70;4.80;;;;;;;11.29;45.99;101101.25;105709;1260;59314;-59
2024/02/25 09:20:46;;;;;;;10.20;4.80;;;;;;;11.30;46.14;101101.71;105158;1254;60538;-58
2024/02/25 09:23:14;;;;;;;11.40;5.50;;;;;;;11.30;46.05;101099.23;105145;1259;67125;-58
2024/02/25 09:25:43;;;;;;;6.30;1.90;;;;;;;11.30;45.90;101098.94;105118;1259;60581;-58
2024/02/25 09:28:16;;;;;;;10.20;4.80;;;;;;;11.28;46.00;101101.55;105076;1259;62605;-60
2024/02/25 09:30:44;;;;;;;10.70;5.40;;;;;;;11.27;46.03;101101.60;105436;1254;60444;-58
2024/02/25 09:33:12;;;;;;;10.10;4.50;;;;;;;11.25;45.94;101097.14;105129;1259;61040;-57
2024/02/25 09:35:40;;;;;;;12.60;5.20;;;;;;;11.24;45.90;101096.55;106103;1256;65880;-57
2024/02/25 09:38:08;;;;;;;8.20;2.10;;;;;;;11.19;45.86;101094.42;105356;1254;61840;-59
2024/02/25 09:40:36;;;;;;;9.90;5.50;;;;;;;11.13;45.88;101089.94;105079;1254;63843;-58
2024/02/25 09:43:04;;;;;;;7.70;4.70;;;;;;;11.09;46.01;101086.88;105039;1261;61052;-59
2024/02/25 09:45:32;;;;;;;9.80;4.70;;;;;;;11.09;46.18;101082.33;105039;1256;60541;-61
2024/02/25 09:47:59;;;;;;;10.70;4.40;;;;;;;11.09;46.38;101074.59;105566;1258;65058;-61
2024/02/25 09:50:29;;;;;;;11.40;5.20;;;;;;;11.12;46.58;101068.93;105070;1254;60562;-66
2024/02/25 09:52:58;;;;;;;5.60;2.00;;;;;;;11.19;46.27;101066.02;105004;1255;63807;-62
2024/02/25 09:55:26;;;;;;;9.70;5.20;;;;;;;11.22;46.21;101061.21;105558;1257;60460;-61
2024/02/25 09:57:53;;;;;;;12.50;5.20;;;;;;;11.23;46.15;101058.52;104927;1259;60319;-57
2024/02/25 10:00:21;;;;;;;11.40;5.10;;;;;;;11.26;46.39;101061.98;105103;1254;63803;-61
2024/02/25 10:02:49;;;;;;;11.20;3.00;;;;;;;11.29;46.50;101063.33;104944;1259;60507;-58
2024/02/25 10:05:18;;;;;;;9.50;4.50;;;;;;;11.34;46.46;101059.47;106725;1256;62617;-61
2024/02/25 10:08:02;;;;;;;8.80;4.60;;;;;;;11.37;46.36;101059.96;104969;1261;60457;-63
2024/02/25 10:10:33;;;;;;;11.70;4.70;;;;;;;11.39;46.19;101053.83;105493;1255;61653;-56
2024/02/25 10:13:04;;;;;;;11.40;4.70;;;;;;;11.41;46.12;101051.80;105556;1256;65098;-59
2024/02/25 10:15:32;;;;;;;6.20;2.20;;;;;;;11.42;45.96;101049.92;105586;1257;60559;-60
2024/02/25 10:18:00;;;;;;;10.30;4.70;;;;;;;11.48;46.19;101048.39;105019;1254;62526;-61
2024/02/25 10:20:28;;;;;;;9.70;4.70;;;;;;;11.56;46.28;101047.50;105027;1255;60632;-62
2024/02/25 10:23:09;;;;;;;9.60;4.30;;;;;;;11.63;46.09;101045.41;104940;1259;244185;-58
2024/02/25 10:37:45;;;;;;;8.20;4.70;;;;;;;11.62;46.23;101043.86;102732;1288;604979;-59
2024/02/25 10:40:13;;;;;;;9.90;4.70;;;;;;;12.15;45.28;101045.81;104185;1267;131702;-62
2024/02/25 10:42:43;;;;;;;9.40;4.50;;;;;;;12.07;45.82;101049.67;104526;1266;59289;-62
2024/02/25 10:45:11;;;;;;;8.20;4.40;;;;;;;12.01;46.25;101048.94;104686;1266;63431;-59
2024/02/25 10:47:39;;;;;;;9.30;4.60;;;;;;;11.94;46.65;101049.85;104230;1272;61512;-61
2024/02/25 10:50:09;;;;;;;11.40;4.50;;;;;;;11.84;46.83;101046.15;104529;1274;62557;-61
2024/02/25 10:52:36;;;;;;;10.60;5.00;;;;;;;11.71;46.94;101047.27;104517;1267;59277;-63
2024/02/25 10:55:05;;;;;;;8.20;4.50;;;;;;;11.62;47.33;101044.76;104300;1271;59225;-61
2024/02/25 10:57:34;;;;;;;12.00;5.20;;;;;;;11.57;47.64;101045.73;104860;1268;63809;-62
2024/02/25 11:00:02;;;;;;;12.80;5.80;;;;;;;11.52;47.78;101046.55;104265;1271;60273;-59
2024/02/25 11:02:30;;;;;;;5.90;2.20;;;;;;;11.46;48.03;101048.94;104999;1271;64362;-59
2024/02/25 11:04:58;;;;;;;10.80;5.40;;;;;;;11.38;47.96;101049.88;104332;1267;59739;-64
2024/02/25 11:07:26;;;;;;;10.90;5.90;;;;;;;11.30;48.09;101046.04;104711;1266;59636;-61
2024/02/25 11:09:54;;;;;;;10.20;3.30;;;;;;;11.27;48.49;101045.23;104323;1267;62901;-59
2024/02/25 11:12:26;;;;;;;8.40;4.60;;;;;;;11.26;48.62;101043.20;104372;1266;61733;-59
2024/02/25 11:15:06;;;;;;;10.10;5.30;;;;;;;11.23;48.43;101048.48;104841;1272;62657;-60
2024/02/25 11:17:40;;;;;;;11.10;3.40;;;;;;;11.20;48.43;101049.62;104388;1270;59594;-61
2024/02/25 11:20:11;;;;;;;12.70;5.50;;;;;;;11.16;48.38;101053.02;104473;1269;59624;-59
2024/02/25 11:22:50;;;;;;;11.10;5.50;;;;;;;11.15;48.52;101053.64;104870;1266;62916;-61
2024/02/25 11:25:25;;;;;;;10.40;2.20;;;;;;;11.10;48.31;101052.62;104472;1266;61451;-61
2024/02/25 11:28:00;;;;;;;12.30;5.30;;;;;;;11.00;48.41;101051.55;105065;1268;63882;-59
2024/02/25 11:30:40;;;;;;;10.80;5.30;;;;;;;10.93;49.28;101048.88;105770;1267;59759;-60
2024/02/25 11:33:48;;;;;;;8.90;4.80;;;;;;;10.88;50.48;101044.30;104359;1270;59599;-59